createdAt,value
2022-09-20T00:00:46.593Z,100985.16
2022-09-20T00:03:14.113Z,100981.44
2022-09-20T00:05:43.051Z,100988.78
2022-09-20T00:08:13.133Z,100991.53
2022-09-20T00:10:39.935Z,100988.84
2022-09-20T00:13:08.427Z,100985.91
2022-09-20T00:15:39.764Z,100990.53
2022-09-20T00:18:06.066Z,100993.19
2022-09-20T00:20:32.370Z,100994.25
2022-09-20T00:22:58.658Z,100994.81
2022-09-20T00:25:24.979Z,100990.19
2022-09-20T00:27:51.287Z,100991.09
2022-09-20T00:30:17.611Z,100994.56
2022-09-20T00:32:43.889Z,100997.00
2022-09-20T00:35:10.318Z,100993.75
2022-09-20T00:37:44.091Z,100995.91
2022-09-20T00:40:15.418Z,100998.06
2022-09-20T00:42:41.794Z,100998.06
2022-09-20T00:45:19.567Z,101003.53
2022-09-20T00:48:25.073Z,101001.91
2022-09-20T00:50:57.819Z,101002.97
2022-09-20T00:53:31.800Z,100995.94
2022-09-20T00:56:03.605Z,100997.84
2022-09-20T00:58:35.721Z,100998.66
2022-09-20T01:01:04.575Z,101001.94
2022-09-20T01:03:32.717Z,101010.34
2022-09-20T01:06:03.194Z,101008.69
2022-09-20T01:08:30.925Z,101002.75
2022-09-20T01:10:57.474Z,100997.03
2022-09-20T01:13:23.783Z,100994.91
2022-09-20T01:15:51.691Z,100991.38
2022-09-20T01:18:20.491Z,100999.78
2022-09-20T01:20:47.777Z,101003.84
2022-09-20T01:23:32.252Z,101001.91
2022-09-20T01:26:18.575Z,101004.09
2022-09-20T01:28:49.972Z,101007.34
2022-09-20T01:31:25.240Z,101009.47
2022-09-20T01:34:06.376Z,101009.25
2022-09-20T01:37:09.299Z,101011.13
2022-09-20T01:40:01.284Z,101010.59
2022-09-20T01:42:36.062Z,101013.84
2022-09-20T01:45:20.809Z,101011.13
2022-09-20T01:47:53.519Z,101016.56
2022-09-20T01:50:29.618Z,101014.06
2022-09-20T01:53:16.299Z,101016.81
2022-09-20T01:56:03.933Z,101014.06
2022-09-20T01:59:06.958Z,101012.47
2022-09-20T02:01:53.176Z,101014.88
2022-09-20T02:04:39.781Z,101016.56
2022-09-20T02:07:28.632Z,101019.50
2022-09-20T02:10:10.205Z,101018.44
2022-09-20T02:12:53.011Z,101013.59
2022-09-20T02:15:44.057Z,101014.38
2022-09-20T02:18:35.231Z,101011.94
2022-09-20T02:21:38.985Z,101016.56
2022-09-20T02:24:28.833Z,101010.59
2022-09-20T02:27:21.832Z,101016.56
2022-09-20T02:29:53.017Z,101012.22
2022-09-20T02:32:44.350Z,101013.84
2022-09-20T02:35:19.651Z,101010.84
2022-09-20T02:37:59.853Z,101014.66
2022-09-20T02:40:33.628Z,101014.09
2022-09-20T02:43:27.907Z,101007.34
2022-09-20T02:46:12.633Z,101017.91
2022-09-20T02:48:44.137Z,101013.28
2022-09-20T02:51:24.410Z,101012.75
2022-09-20T02:54:09.210Z,101020.88
2022-09-20T02:56:51.161Z,101018.16
2022-09-20T02:59:31.752Z,101020.34
2022-09-20T03:02:24.741Z,101013.28
2022-09-20T03:05:16.834Z,101015.69
2022-09-20T03:07:58.098Z,101016.03
2022-09-20T03:10:37.381Z,101021.16
2022-09-20T03:13:15.694Z,101018.69
2022-09-20T03:16:08.801Z,101020.28
2022-09-20T03:19:12.891Z,101029.50
2022-09-20T03:22:11.927Z,101026.00
2022-09-20T03:25:17.689Z,101036.28
2022-09-20T03:28:03.650Z,101036.81
2022-09-20T03:30:51.222Z,101032.72
2022-09-20T03:33:33.595Z,101035.47
2022-09-20T03:36:12.024Z,101033.88
2022-09-20T03:38:53.079Z,101035.47
2022-09-20T03:42:01.388Z,101040.31
2022-09-20T03:44:45.705Z,101035.16
2022-09-20T03:47:34.952Z,101038.66
2022-09-20T03:50:03.922Z,101043.53
2022-09-20T03:53:07.928Z,101044.88
2022-09-20T03:56:00.781Z,101046.78
2022-09-20T03:58:54.237Z,101050.28
2022-09-20T04:01:42.008Z,101047.06
2022-09-20T04:04:33.262Z,101050.56
2022-09-20T04:07:15.762Z,101041.41
2022-09-20T04:09:48.121Z,101044.09
2022-09-20T04:12:48.715Z,101045.19
2022-09-20T04:15:45.651Z,101043.03
2022-09-20T04:18:38.346Z,101040.03
2022-09-20T04:21:16.848Z,101039.75
2022-09-20T04:23:47.394Z,101041.94
2022-09-20T04:26:20.278Z,101043.28
2022-09-20T04:28:53.478Z,101048.69
2022-09-20T04:31:32.149Z,101049.19
2022-09-20T04:34:01.797Z,101050.28
2022-09-20T04:36:57.373Z,101041.34
2022-09-20T04:39:49.175Z,101049.47
2022-09-20T04:42:58.910Z,101057.03
2022-09-20T04:46:00.598Z,101060.84
2022-09-20T04:48:46.290Z,101057.63
2022-09-20T04:51:57.333Z,101060.63
2022-09-20T04:54:44.707Z,101064.13
2022-09-20T04:57:26.572Z,101070.66
2022-09-20T05:00:04.544Z,101073.34
2022-09-20T05:03:03.871Z,101065.75
2022-09-20T05:05:51.360Z,101070.97
2022-09-20T05:08:48.714Z,101077.66
2022-09-20T05:11:47.484Z,101084.94
2022-09-20T05:14:51.753Z,101087.41
2022-09-20T05:17:35.496Z,101092.81
2022-09-20T05:20:53.940Z,101097.41
2022-09-20T05:23:38.797Z,101100.91
2022-09-20T05:26:33.427Z,101098.50
2022-09-20T05:29:07.924Z,101107.50
2022-09-20T05:31:46.167Z,101111.03
2022-09-20T05:34:52.025Z,101107.50
2022-09-20T05:37:37.590Z,101107.00
2022-09-20T05:40:22.718Z,101113.47
2022-09-20T05:43:08.774Z,101112.41
2022-09-20T05:46:04.393Z,101114.59
2022-09-20T05:48:39.671Z,101118.91
2022-09-20T05:51:24.947Z,101123.53
2022-09-20T05:54:00.391Z,101125.97
2022-09-20T05:56:55.161Z,101130.81
2022-09-20T05:59:37.527Z,101127.56
2022-09-20T06:02:28.046Z,101130.81
2022-09-20T06:05:15.598Z,101128.38
2022-09-20T06:07:54.955Z,101131.91
2022-09-20T06:10:27.287Z,101126.47
2022-09-20T06:13:14.061Z,101133.50
2022-09-20T06:16:02.005Z,101135.09
2022-09-20T06:18:44.578Z,101131.78
2022-09-20T06:21:31.890Z,101137.19
2022-09-20T06:24:00.649Z,101130.41
2022-09-20T06:26:36.572Z,101133.91
2022-09-20T06:29:06.539Z,101134.44
2022-09-20T06:31:33.075Z,101145.81
2022-09-20T06:34:14.840Z,101140.47
2022-09-20T06:36:48.619Z,101138.16
2022-09-20T06:39:20.549Z,101142.47
2022-09-20T06:41:46.904Z,101139.97
2022-09-20T06:44:13.199Z,101139.19
2022-09-20T06:46:39.510Z,101142.66
2022-09-20T06:49:05.801Z,101146.97
2022-09-20T06:51:37.494Z,101148.03
2022-09-20T06:54:05.765Z,101149.88
2022-09-20T06:56:35.029Z,101155.03
2022-09-20T06:59:01.320Z,101152.59
2022-09-20T07:01:30.636Z,101154.41
2022-09-20T07:03:57.845Z,101157.16
2022-09-20T07:06:24.181Z,101164.97
2022-09-20T07:08:50.488Z,101165.75
2022-09-20T07:11:17.526Z,101166.25
2022-09-20T07:13:45.216Z,101168.13
2022-09-20T07:16:13.405Z,101164.91
2022-09-20T07:18:40.093Z,101171.53
2022-09-20T07:21:07.044Z,101166.13
2022-09-20T07:23:33.358Z,101174.78
2022-09-20T07:25:59.659Z,101181.78
2022-09-20T07:28:27.671Z,101189.22
2022-09-20T07:30:54.200Z,101192.22
2022-09-20T07:33:20.689Z,101190.28
2022-09-20T07:35:50.301Z,101194.03
2022-09-20T07:38:16.605Z,101194.50
2022-09-20T07:40:43.204Z,101195.59
2022-09-20T07:43:09.503Z,101197.75
2022-09-20T07:45:36.589Z,101202.06
2022-09-20T07:48:02.934Z,101197.38
2022-09-20T07:50:29.220Z,101195.66
2022-09-20T07:52:56.402Z,101207.81
2022-09-20T07:55:22.709Z,101205.22
2022-09-20T07:57:48.989Z,101198.56
2022-09-20T08:00:15.418Z,101214.78
2022-09-20T08:02:41.723Z,101213.59
2022-09-20T08:05:08.387Z,101212.78
2022-09-20T08:07:34.739Z,101216.03
2022-09-20T08:10:01.079Z,101219.09
2022-09-20T08:15:13.804Z,101232.25
2022-09-20T08:17:40.253Z,101229.13
2022-09-20T08:20:07.181Z,101231.94
2022-09-20T08:22:33.536Z,101220.59
2022-09-20T08:24:59.850Z,101229.38
2022-09-20T08:27:26.190Z,101231.81
2022-09-20T08:29:52.512Z,101232.69
2022-09-20T08:32:18.850Z,101231.47
2022-09-20T08:34:49.408Z,101230.53
2022-09-20T08:37:15.894Z,101227.38
2022-09-20T08:39:58.335Z,101227.47
2022-09-20T08:42:37.683Z,101226.44
2022-09-20T08:45:22.324Z,101233.22
2022-09-20T08:47:58.860Z,101226.63
2022-09-20T08:50:25.703Z,101224.28
2022-09-20T08:53:00.121Z,101232.56
2022-09-20T08:55:28.735Z,101222.22
2022-09-20T08:57:57.298Z,101227.34
2022-09-20T09:00:26.026Z,101226.25
2022-09-20T09:02:55.995Z,101217.97
2022-09-20T09:05:37.307Z,101219.56
2022-09-20T09:08:10.320Z,101213.47
2022-09-20T09:10:43.090Z,101227.84
2022-09-20T09:13:20.500Z,101218.66
2022-09-20T09:15:54.229Z,101220.28
2022-09-20T09:18:20.591Z,101224.09
2022-09-20T09:20:47.389Z,101231.91
2022-09-20T09:23:23.795Z,101227.78
2022-09-20T09:25:50.164Z,101229.41
2022-09-20T09:28:20.467Z,101230.28
2022-09-20T09:30:47.322Z,101227.16
2022-09-20T09:33:16.346Z,101225.44
2022-09-20T09:35:43.907Z,101228.59
2022-09-20T09:38:19.709Z,101228.06
2022-09-20T09:40:52.064Z,101236.38
2022-09-20T09:43:27.242Z,101242.84
2022-09-20T09:45:54.978Z,101240.81
2022-09-20T09:48:30.267Z,101248.50
2022-09-20T09:51:14.538Z,101241.13
2022-09-20T09:53:42.509Z,101240.19
2022-09-20T09:56:30.458Z,101241.69
2022-09-20T09:59:11.697Z,101241.94
2022-09-20T10:01:58.686Z,101238.09
2022-09-20T10:04:37.186Z,101240.41
2022-09-20T10:07:14.286Z,101244.88
2022-09-20T10:09:49.768Z,101240.91
2022-09-20T10:12:53.289Z,101240.47
2022-09-20T10:15:41.574Z,101239.81
2022-09-20T10:18:31.817Z,101241.81
2022-09-20T10:21:16.990Z,101243.63
2022-09-20T10:24:05.072Z,101240.53
2022-09-20T10:27:01.860Z,101242.78
2022-09-20T10:29:52.998Z,101234.72
2022-09-20T10:32:27.996Z,101239.56
2022-09-20T10:35:03.502Z,101237.63
2022-09-20T10:37:49.504Z,101238.63
2022-09-20T10:40:16.059Z,101240.91
2022-09-20T10:42:48.988Z,101245.91
2022-09-20T10:45:55.990Z,101246.16
2022-09-20T10:48:30.891Z,101247.78
2022-09-20T10:51:21.655Z,101246.72
2022-09-20T10:54:14.855Z,101250.19
2022-09-20T10:56:46.505Z,101249.34
2022-09-20T10:59:35.102Z,101245.00
2022-09-20T11:02:39.221Z,101248.25
2022-09-20T11:05:16.509Z,101247.19
2022-09-20T11:07:56.646Z,101240.63
2022-09-20T11:10:33.554Z,101244.53
2022-09-20T11:13:03.960Z,101238.75
2022-09-20T11:15:39.398Z,101239.16
2022-09-20T11:18:29.413Z,101245.38
2022-09-20T11:21:20.926Z,101247.22
2022-09-20T11:24:11.906Z,101246.66
2022-09-20T11:26:44.776Z,101248.97
2022-09-20T11:29:24.397Z,101257.78
2022-09-20T11:31:53.464Z,101241.75
2022-09-20T11:34:29.659Z,101248.72
2022-09-20T11:36:59.180Z,101255.38
2022-09-20T11:39:44.250Z,101258.22
2022-09-20T11:42:16.185Z,101256.41
2022-09-20T11:44:43.322Z,101253.59
2022-09-20T11:47:42.843Z,101251.38
2022-09-20T11:50:36.724Z,101250.25
2022-09-20T11:53:36.478Z,101257.22
2022-09-20T11:56:17.348Z,101256.19
2022-09-20T11:58:53.157Z,101252.84
2022-09-20T12:01:40.634Z,101253.00
2022-09-20T12:04:31.854Z,101245.78
2022-09-20T12:07:10.652Z,101249.66
2022-09-20T12:09:43.694Z,101244.41
2022-09-20T12:12:31.428Z,101245.19
2022-09-20T12:15:01.412Z,101249.47
2022-09-20T12:17:57.021Z,101239.44
2022-09-20T12:20:49.588Z,101238.50
2022-09-20T12:23:37.456Z,101240.41
2022-09-20T12:26:20.478Z,101234.84
2022-09-20T12:28:50.794Z,101237.41
2022-09-20T12:31:23.208Z,101240.31
2022-09-20T12:34:06.960Z,101236.78
2022-09-20T12:36:36.819Z,101238.50
2022-09-20T12:39:22.405Z,101239.25
2022-09-20T12:42:11.501Z,101248.13
2022-09-20T12:44:37.857Z,101234.91
2022-09-20T12:47:10.331Z,101244.50
2022-09-20T12:49:49.176Z,101239.53
2022-09-20T12:52:24.709Z,101238.22
2022-09-20T12:54:52.899Z,101234.19
2022-09-20T12:57:30.556Z,101236.84
2022-09-20T12:59:59.230Z,101230.91
2022-09-20T13:03:02.326Z,101230.06
2022-09-20T13:05:34.494Z,101223.47
2022-09-20T13:08:14.287Z,101224.84
2022-09-20T13:10:59.442Z,101223.84
2022-09-20T13:13:51.855Z,101226.97
2022-09-20T13:16:35.788Z,101228.00
2022-09-20T13:19:06.096Z,101230.56
2022-09-20T13:21:36.294Z,101233.28
2022-09-20T13:24:03.479Z,101226.47
2022-09-20T13:26:35.629Z,101224.56
2022-09-20T13:29:03.164Z,101235.75
2022-09-20T13:31:31.819Z,101229.63
2022-09-20T13:34:21.410Z,101231.53
2022-09-20T13:36:55.353Z,101226.88
2022-09-20T13:39:27.635Z,101228.13
2022-09-20T13:41:54.018Z,101225.19
2022-09-20T13:44:20.425Z,101226.06
2022-09-20T13:46:46.745Z,101227.38
2022-09-20T13:49:18.494Z,101235.84
2022-09-20T13:51:44.852Z,101234.16
2022-09-20T13:54:37.629Z,101244.03
2022-09-20T13:57:10.941Z,101250.34
2022-09-20T13:59:43.779Z,101256.22
2022-09-20T14:02:27.223Z,101256.22
2022-09-20T14:04:55.601Z,101260.78
2022-09-20T14:07:24.311Z,101267.44
2022-09-20T14:09:50.656Z,101263.84
2022-09-20T14:12:17.133Z,101263.91
2022-09-20T14:14:44.472Z,101267.47
2022-09-20T14:17:16.294Z,101264.03
2022-09-20T14:19:43.837Z,101268.19
2022-09-20T14:22:21.278Z,101268.97
2022-09-20T14:25:19.763Z,101264.91
2022-09-20T14:27:46.082Z,101270.16
2022-09-20T14:30:33.410Z,101275.69
2022-09-20T14:32:59.827Z,101260.00
2022-09-20T14:35:26.485Z,101267.34
2022-09-20T14:37:59.341Z,101265.91
2022-09-20T14:40:40.509Z,101280.53
2022-09-20T14:43:37.129Z,101277.19
2022-09-20T14:46:16.992Z,101281.69
2022-09-20T14:48:43.639Z,101274.25
2022-09-20T14:51:15.668Z,101273.50
2022-09-20T14:53:43.250Z,101276.97
2022-09-20T14:56:11.902Z,101280.06
2022-09-20T14:59:01.179Z,101287.19
2022-09-20T15:01:27.539Z,101286.09
2022-09-20T15:03:56.401Z,101284.09
2022-09-20T15:06:23.125Z,101293.00
2022-09-20T15:08:49.507Z,101285.06
2022-09-20T15:11:19.216Z,101294.50
2022-09-20T15:13:45.924Z,101286.88
2022-09-20T15:16:18.399Z,101288.75
2022-09-20T15:18:44.929Z,101292.72
2022-09-20T15:21:11.338Z,101284.69
2022-09-20T15:23:38.290Z,101295.75
2022-09-20T15:26:05.453Z,101286.41
2022-09-20T15:28:33.641Z,101290.19
2022-09-20T15:30:59.948Z,101290.19
2022-09-20T15:33:30.562Z,101300.50
2022-09-20T15:35:57.320Z,101295.81
2022-09-20T15:38:27.512Z,101293.00
2022-09-20T15:40:56.956Z,101297.16
2022-09-20T15:43:24.616Z,101299.47
2022-09-20T15:46:16.251Z,101294.16
2022-09-20T15:48:42.814Z,101296.78
2022-09-20T15:51:10.632Z,101304.78
2022-09-20T15:53:38.835Z,101302.19
2022-09-20T15:56:17.246Z,101299.56
2022-09-20T15:58:46.011Z,101295.56
2022-09-20T16:01:14.848Z,101291.66
2022-09-20T16:03:41.170Z,101291.72
2022-09-20T16:06:10.988Z,101289.75
2022-09-20T16:08:42.340Z,101291.28
2022-09-20T16:11:13.459Z,101297.75
2022-09-20T16:13:40.473Z,101303.00
2022-09-20T16:16:09.201Z,101290.00
2022-09-20T16:18:39.216Z,101300.22
2022-09-20T16:21:07.217Z,101295.66
2022-09-20T16:23:33.500Z,101300.13
2022-09-20T16:25:59.853Z,101301.84
2022-09-20T16:28:26.626Z,101308.25
2022-09-20T16:30:57.065Z,101311.44
2022-09-20T16:33:23.524Z,101308.69
2022-09-20T16:35:50.612Z,101309.09
2022-09-20T16:38:20.030Z,101306.03
2022-09-20T16:40:50.626Z,101304.75
2022-09-20T16:43:17.948Z,101314.41
2022-09-20T16:45:44.849Z,101316.09
2022-09-20T16:48:11.400Z,101317.50
2022-09-20T16:50:37.708Z,101321.34
2022-09-20T16:53:07.366Z,101324.06
2022-09-20T16:55:33.665Z,101325.22
2022-09-20T16:58:08.868Z,101329.06
2022-09-20T17:00:35.241Z,101325.78
2022-09-20T17:03:01.649Z,101328.66
2022-09-20T17:05:28.113Z,101331.63
2022-09-20T17:07:54.527Z,101332.84
2022-09-20T17:10:41.128Z,101340.50
2022-09-20T17:13:09.971Z,101342.75
2022-09-20T17:15:36.748Z,101347.03
2022-09-20T17:18:03.362Z,101348.25
2022-09-20T17:20:29.663Z,101348.88
2022-09-20T17:22:59.892Z,101353.94
2022-09-20T17:25:26.499Z,101357.53
2022-09-20T17:28:03.828Z,101353.69
2022-09-20T17:30:30.777Z,101364.38
2022-09-20T17:32:57.380Z,101364.97
2022-09-20T17:35:23.864Z,101366.78
2022-09-20T17:37:50.450Z,101368.81
2022-09-20T17:40:16.811Z,101368.63
2022-09-20T17:42:44.025Z,101367.06
2022-09-20T17:45:10.609Z,101367.16
2022-09-20T17:47:39.960Z,101382.94
2022-09-20T17:50:06.555Z,101375.63
2022-09-20T17:52:36.140Z,101384.38
2022-09-20T17:55:02.433Z,101391.19
2022-09-20T17:57:29.085Z,101387.94
2022-09-20T17:59:55.831Z,101391.19
2022-09-20T18:02:25.413Z,101396.84
2022-09-20T18:04:52.565Z,101392.78
2022-09-20T18:07:22.259Z,101392.75
2022-09-20T18:09:48.592Z,101399.25
2022-09-20T18:12:18.885Z,101398.72
2022-09-20T18:14:50.082Z,101401.97
2022-09-20T18:17:16.402Z,101408.19
2022-09-20T18:19:42.704Z,101420.94
2022-09-20T18:22:09.004Z,101426.91
2022-09-20T18:24:41.481Z,101428.47
2022-09-20T18:27:07.789Z,101431.75
2022-09-20T18:29:34.081Z,101428.00
2022-09-20T18:32:00.474Z,101430.44
2022-09-20T18:34:28.051Z,101424.78
2022-09-20T18:36:56.846Z,101423.13
2022-09-20T18:39:24.993Z,101427.44
2022-09-20T18:41:52.014Z,101430.66
2022-09-20T18:44:19.183Z,101431.72
2022-09-20T18:46:46.777Z,101427.34
2022-09-20T18:49:14.198Z,101431.72
2022-09-20T18:51:41.731Z,101438.19
2022-09-20T18:54:09.723Z,101437.09
2022-09-20T18:56:38.447Z,101436.50
2022-09-20T18:59:07.925Z,101437.53
2022-09-20T19:02:05.272Z,101443.50
2022-09-20T19:05:16.480Z,101452.06
2022-09-20T19:07:58.623Z,101445.22
2022-09-20T19:10:58.905Z,101447.56
2022-09-20T19:13:43.595Z,101457.78
2022-09-20T19:16:28.712Z,101457.25
2022-09-20T19:19:20.113Z,101459.63
2022-09-20T19:21:57.317Z,101461.69
2022-09-20T19:25:01.001Z,101466.34
2022-09-20T19:27:28.139Z,101464.81
2022-09-20T19:29:54.894Z,101462.34
2022-09-20T19:32:21.492Z,101465.53
2022-09-20T19:34:51.646Z,101466.84
2022-09-20T19:37:44.157Z,101473.75
2022-09-20T19:40:33.699Z,101479.69
2022-09-20T19:43:15.822Z,101485.28
2022-09-20T19:46:16.465Z,101483.34
2022-09-20T19:49:02.449Z,101487.97
2022-09-20T19:51:31.643Z,101482.28
2022-09-20T19:53:58.090Z,101486.59
2022-09-20T19:56:31.160Z,101493.03
2022-09-20T19:58:57.745Z,101496.25
2022-09-20T20:01:25.306Z,101502.94
2022-09-20T20:03:54.886Z,101503.47
2022-09-20T20:06:40.909Z,101500.84
2022-09-20T20:09:15.411Z,101508.94
2022-09-20T20:12:05.572Z,101517.19
2022-09-20T20:15:02.495Z,101523.91
2022-09-20T20:17:48.378Z,101527.66
2022-09-20T20:20:28.800Z,101528.44
2022-09-20T20:23:23.219Z,101519.56
2022-09-20T20:26:05.531Z,101522.22
2022-09-20T20:28:31.949Z,101527.44
2022-09-20T20:31:00.239Z,101526.63
2022-09-20T20:33:26.684Z,101530.13
2022-09-20T20:35:54.483Z,101532.63
2022-09-20T20:38:21.530Z,101539.94
2022-09-20T20:40:47.822Z,101538.25
2022-09-20T20:43:14.110Z,101542.56
2022-09-20T20:45:49.515Z,101546.44
2022-09-20T20:48:15.801Z,101543.31
2022-09-20T20:50:42.088Z,101547.41
2022-09-20T20:53:08.383Z,101552.84
2022-09-20T20:55:34.670Z,101549.59
2022-09-20T20:58:00.962Z,101553.81
2022-09-20T21:00:28.077Z,101550.81
2022-09-20T21:02:59.129Z,101553.81
2022-09-20T21:05:26.950Z,101556.63
2022-09-20T21:07:53.618Z,101558.25
2022-09-20T21:10:20.474Z,101557.75
2022-09-20T21:12:46.829Z,101559.91
2022-09-20T21:15:13.187Z,101555.47
2022-09-20T21:17:39.482Z,101569.13
2022-09-20T21:20:06.209Z,101571.19
2022-09-20T21:22:32.506Z,101572.50
2022-09-20T21:24:58.806Z,101572.72
2022-09-20T21:27:25.107Z,101566.50
2022-09-20T21:29:51.402Z,101572.97
2022-09-20T21:32:17.703Z,101575.91
2022-09-20T21:34:44.050Z,101570.28
2022-09-20T21:37:10.326Z,101579.38
2022-09-20T21:39:36.608Z,101579.50
2022-09-20T21:42:02.947Z,101580.91
2022-09-20T21:44:29.246Z,101579.38
2022-09-20T21:46:55.527Z,101588.84
2022-09-20T21:49:21.818Z,101585.88
2022-09-20T21:51:48.098Z,101590.13
2022-09-20T21:54:14.395Z,101583.25
2022-09-20T21:56:40.703Z,101594.19
2022-09-20T21:59:07.034Z,101587.88
2022-09-20T22:01:37.008Z,101597.41
2022-09-20T22:04:09.341Z,101595.69
2022-09-20T22:06:38.907Z,101590.00
2022-09-20T22:09:10.732Z,101595.22
2022-09-20T22:11:43.112Z,101598.63
2022-09-20T22:14:10.800Z,101603.66
2022-09-20T22:16:39.598Z,101598.16
2022-09-20T22:19:07.976Z,101603.72
2022-09-20T22:21:36.795Z,101602.50
2022-09-20T22:24:05.937Z,101604.97
2022-09-20T22:26:37.756Z,101605.59
2022-09-20T22:29:04.858Z,101605.69
2022-09-20T22:31:33.563Z,101606.66
2022-09-20T22:34:01.906Z,101601.75
2022-09-20T22:36:30.993Z,101600.78
2022-09-20T22:38:57.322Z,101592.00
2022-09-20T22:41:24.530Z,101599.84
2022-09-20T22:43:50.945Z,101594.44
2022-09-20T22:46:22.601Z,101599.16
2022-09-20T22:48:49.339Z,101605.50
2022-09-20T22:51:27.130Z,101599.16
2022-09-20T22:53:53.637Z,101599.28
2022-09-20T22:56:30.731Z,101604.22
2022-09-20T22:58:59.520Z,101597.53
2022-09-20T23:01:30.857Z,101599.03
2022-09-20T23:04:05.625Z,101606.88
2022-09-20T23:06:33.394Z,101603.59
2022-09-20T23:09:01.435Z,101605.59
2022-09-20T23:11:29.151Z,101603.38
2022-09-20T23:13:58.765Z,101606.66
2022-09-20T23:16:27.291Z,101598.81
2022-09-20T23:18:54.689Z,101601.75
2022-09-20T23:21:21.364Z,101606.53
2022-09-20T23:23:55.760Z,101607.13
2022-09-20T23:26:23.229Z,101613.00
2022-09-20T23:29:07.542Z,101608.69
2022-09-20T23:31:35.671Z,101609.22
2022-09-20T23:34:04.480Z,101610.91
2022-09-20T23:36:34.595Z,101614.53
2022-09-20T23:39:01.135Z,101613.97
2022-09-20T23:41:28.444Z,101606.47
2022-09-20T23:43:55.351Z,101611.63
2022-09-20T23:46:23.001Z,101616.19
2022-09-20T23:48:49.497Z,101617.47
2022-09-20T23:51:18.411Z,101616.25
2022-09-20T23:53:45.002Z,101609.97
2022-09-20T23:56:12.726Z,101618.88
2022-09-20T23:58:40.986Z,101623.66
